Webcam & Weather

This webcam image will automatically refresh every 15 seconds.


METAR and TAF for EGLL Heathrow (12 Nautical Miles East of White Waltham)

Available data for EGLL from the past hour
LONDON/HEATHROW
Metar
EGLL 252050Z AUTO 22007KT 9999 NCD 11/06 Q1036 NOSIG

20:50 UTC

Wind: 220° 7kt

Visibility: 9999 m

Sky:

Temp: 11 deg C / 51.8 deg F

Dewpoint: 6 deg C / 42.8 deg F

Pressure: 1036 hPa

TAF
TAF EGLL 251654Z 2518/2624 19005KT 9999 FEW040 PROB30 2603/2608 4000 BR

Play 24 hour timelapse | Play 30 day timelapse

Comments are closed.